createdAt,value
2019-05-25T00:01:12.626Z,12.51
2019-05-25T00:03:41.282Z,12.56
2019-05-25T00:06:09.922Z,12.50
2019-05-25T00:08:38.628Z,12.50
2019-05-25T00:11:07.436Z,12.54
2019-05-25T00:13:36.096Z,12.42
2019-05-25T00:16:04.829Z,12.52
2019-05-25T00:18:33.492Z,12.50
2019-05-25T00:21:02.164Z,12.57
2019-05-25T00:23:30.887Z,12.66
2019-05-25T00:25:59.546Z,12.77
2019-05-25T00:28:28.199Z,12.59
2019-05-25T00:30:56.914Z,12.42
2019-05-25T00:33:25.487Z,12.38
2019-05-25T00:35:54.152Z,12.45
2019-05-25T00:38:22.942Z,12.43
2019-05-25T00:40:51.601Z,12.41
2019-05-25T00:43:20.259Z,12.62
2019-05-25T00:45:48.986Z,12.61
2019-05-25T00:48:17.649Z,12.54
2019-05-25T00:50:46.311Z,12.50
2019-05-25T00:53:15.047Z,12.78
2019-05-25T00:55:43.778Z,13.04
2019-05-25T00:58:12.422Z,12.58
2019-05-25T01:00:41.724Z,12.67
2019-05-25T01:03:10.445Z,12.80
2019-05-25T01:05:40.536Z,12.62
2019-05-25T01:08:09.272Z,12.60
2019-05-25T01:10:37.945Z,12.68
2019-05-25T01:13:06.593Z,12.16
2019-05-25T01:15:35.306Z,12.26
2019-05-25T01:18:03.970Z,12.03
2019-05-25T01:20:32.616Z,11.90
2019-05-25T01:23:01.378Z,11.88
2019-05-25T01:25:30.036Z,11.93
2019-05-25T01:27:58.845Z,12.14
2019-05-25T01:30:27.559Z,12.13
2019-05-25T01:32:56.212Z,11.82
2019-05-25T01:35:24.852Z,11.72
2019-05-25T01:37:53.511Z,11.72
2019-05-25T01:40:22.352Z,11.70
2019-05-25T01:42:51.008Z,11.66
2019-05-25T01:45:19.779Z,11.93
2019-05-25T01:47:48.450Z,12.23
2019-05-25T01:50:17.153Z,12.10
2019-05-25T01:52:46.021Z,12.12
2019-05-25T01:55:14.879Z,11.95
2019-05-25T01:57:43.497Z,11.72
2019-05-25T02:00:12.957Z,11.78
2019-05-25T02:02:41.599Z,11.93
2019-05-25T02:05:10.380Z,11.87
2019-05-25T02:07:39.032Z,11.94
2019-05-25T02:10:08.715Z,11.92
2019-05-25T02:12:37.595Z,11.87
2019-05-25T02:15:10.643Z,11.76
2019-05-25T02:17:39.317Z,11.72
2019-05-25T02:20:09.259Z,11.83
2019-05-25T02:22:38.075Z,12.07
2019-05-25T02:25:17.557Z,12.11
2019-05-25T02:27:39.658Z,12.21
2019-05-25T02:30:10.551Z,12.12
2019-05-25T02:32:39.544Z,12.21
2019-05-25T02:35:08.633Z,12.12
2019-05-25T02:37:37.592Z,12.03
2019-05-25T02:40:07.135Z,12.17
2019-05-25T02:42:36.337Z,12.37
2019-05-25T02:45:07.492Z,12.34
2019-05-25T02:47:36.070Z,12.44
2019-05-25T02:50:07.115Z,12.62
2019-05-25T02:52:35.965Z,12.68
2019-05-25T02:55:06.539Z,12.69
2019-05-25T02:57:35.201Z,12.52
2019-05-25T03:00:05.349Z,12.51
2019-05-25T03:02:34.005Z,12.40
2019-05-25T03:05:02.778Z,12.47
2019-05-25T03:07:31.656Z,12.78
2019-05-25T03:10:00.789Z,12.58
2019-05-25T03:12:30.221Z,12.43
2019-05-25T03:14:58.870Z,12.33
2019-05-25T03:17:27.542Z,12.43
2019-05-25T03:19:56.188Z,12.69
2019-05-25T03:22:24.910Z,12.79
2019-05-25T03:24:53.562Z,12.66
2019-05-25T03:27:22.210Z,12.71
2019-05-25T03:29:50.874Z,12.60
2019-05-25T03:32:19.969Z,12.59
2019-05-25T03:34:48.561Z,12.73
2019-05-25T03:37:18.715Z,12.91
2019-05-25T03:39:47.409Z,12.97
2019-05-25T03:42:16.081Z,13.17
2019-05-25T03:44:44.924Z,13.22
2019-05-25T03:47:13.622Z,13.22
2019-05-25T03:49:42.277Z,13.29
2019-05-25T03:52:10.866Z,13.49
2019-05-25T03:54:39.578Z,13.36
2019-05-25T03:57:08.273Z,13.38
2019-05-25T03:59:36.921Z,13.68
2019-05-25T04:02:06.041Z,13.52
2019-05-25T04:04:34.706Z,13.52
2019-05-25T04:07:03.364Z,13.36
2019-05-25T04:09:32.077Z,13.59
2019-05-25T04:12:00.744Z,13.85
2019-05-25T04:14:29.383Z,13.87
2019-05-25T04:16:58.155Z,13.93
2019-05-25T04:19:26.815Z,13.48
2019-05-25T04:21:55.474Z,13.40
2019-05-25T04:24:24.181Z,13.79
2019-05-25T04:26:52.831Z,13.87
2019-05-25T04:29:21.494Z,13.71
2019-05-25T04:31:50.220Z,13.75
2019-05-25T04:34:18.872Z,13.60
2019-05-25T04:36:47.524Z,13.64
2019-05-25T04:39:16.217Z,13.98
2019-05-25T04:41:44.896Z,13.88
2019-05-25T04:44:13.551Z,14.68
2019-05-25T04:46:42.279Z,15.83
2019-05-25T04:49:10.923Z,15.30
2019-05-25T04:51:39.509Z,14.90
2019-05-25T04:54:08.318Z,15.78
2019-05-25T04:56:39.927Z,16.53
2019-05-25T04:59:07.355Z,17.11
2019-05-25T05:01:36.271Z,17.74
2019-05-25T05:04:04.953Z,17.68
2019-05-25T05:06:33.606Z,17.64
2019-05-25T05:09:02.337Z,17.49
2019-05-25T05:11:30.983Z,17.49
2019-05-25T05:13:59.651Z,17.85
2019-05-25T05:16:28.358Z,17.31
2019-05-25T05:18:57.046Z,17.81
2019-05-25T05:21:25.689Z,18.16
2019-05-25T05:23:54.399Z,18.74
2019-05-25T05:26:23.055Z,18.51
2019-05-25T05:28:52.325Z,18.37
2019-05-25T05:31:23.742Z,17.84
2019-05-25T05:33:51.403Z,17.60
2019-05-25T05:36:21.592Z,17.30
2019-05-25T05:38:51.211Z,17.27
2019-05-25T05:41:21.071Z,16.95
2019-05-25T05:43:50.714Z,16.73
2019-05-25T05:46:20.887Z,16.92
2019-05-25T05:48:51.810Z,17.05
2019-05-25T05:51:25.400Z,17.06
2019-05-25T05:53:55.440Z,17.07
2019-05-25T05:56:24.088Z,17.19
2019-05-25T05:58:52.713Z,16.95
2019-05-25T06:01:21.482Z,17.40
2019-05-25T06:03:51.639Z,17.66
2019-05-25T06:06:20.556Z,17.95
2019-05-25T06:08:49.220Z,17.81
2019-05-25T06:11:17.971Z,18.15
2019-05-25T06:13:46.675Z,18.20
2019-05-25T06:16:15.408Z,18.02
2019-05-25T06:18:44.077Z,17.72
2019-05-25T06:21:12.965Z,17.62
2019-05-25T06:23:41.649Z,18.60
2019-05-25T06:26:10.317Z,19.10
2019-05-25T06:28:39.218Z,19.35
2019-05-25T06:31:07.927Z,19.37
2019-05-25T06:33:36.665Z,19.64
2019-05-25T06:36:05.370Z,19.64
2019-05-25T06:38:34.017Z,19.33
2019-05-25T06:41:02.963Z,19.76
2019-05-25T06:43:31.674Z,20.23
2019-05-25T06:46:00.403Z,20.89
2019-05-25T06:48:29.274Z,19.79
2019-05-25T06:50:58.052Z,19.79
2019-05-25T06:53:26.729Z,20.19
2019-05-25T06:55:55.470Z,20.00
2019-05-25T06:58:24.170Z,20.50
2019-05-25T07:00:52.853Z,20.07
2019-05-25T07:03:21.535Z,20.50
2019-05-25T07:05:50.368Z,20.28
2019-05-25T07:08:19.030Z,19.45
2019-05-25T07:10:47.804Z,20.02
2019-05-25T07:13:16.478Z,20.11
2019-05-25T07:15:45.247Z,20.03
2019-05-25T07:18:14.006Z,20.14
2019-05-25T07:20:42.837Z,21.09
2019-05-25T07:23:11.465Z,21.61
2019-05-25T07:25:40.128Z,21.95
2019-05-25T07:28:08.861Z,21.87
2019-05-25T07:30:42.458Z,21.89
2019-05-25T07:33:11.342Z,21.40
2019-05-25T07:35:40.128Z,21.40
2019-05-25T07:38:09.040Z,20.90
2019-05-25T07:40:37.825Z,20.17
2019-05-25T07:43:06.655Z,20.82
2019-05-25T07:45:51.807Z,21.21
2019-05-25T07:48:22.091Z,22.14
2019-05-25T07:50:50.744Z,21.73
2019-05-25T07:53:19.413Z,21.80
2019-05-25T07:55:52.082Z,21.85
2019-05-25T07:58:23.027Z,21.37
2019-05-25T08:00:51.650Z,21.30
2019-05-25T08:03:20.268Z,21.14
2019-05-25T08:05:49.090Z,21.53
2019-05-25T08:08:17.810Z,21.11
2019-05-25T08:10:46.573Z,21.16
2019-05-25T08:13:16.254Z,21.35
2019-05-25T08:15:45.003Z,21.11
2019-05-25T08:18:13.647Z,21.20
2019-05-25T08:20:42.297Z,21.09
2019-05-25T08:23:11.020Z,21.08
2019-05-25T08:25:39.713Z,21.24
2019-05-25T08:28:08.392Z,21.13
2019-05-25T08:30:37.106Z,21.19
2019-05-25T08:33:05.822Z,21.25
2019-05-25T08:35:34.554Z,21.19
2019-05-25T08:38:03.176Z,21.13
2019-05-25T08:40:33.324Z,20.83
2019-05-25T08:43:03.542Z,20.87
2019-05-25T08:45:32.205Z,20.98
2019-05-25T08:48:00.816Z,20.96
2019-05-25T08:50:38.127Z,20.05
2019-05-25T08:53:02.370Z,20.33
2019-05-25T08:55:32.521Z,20.67
2019-05-25T08:58:01.173Z,21.29
2019-05-25T09:00:29.929Z,21.60
2019-05-25T09:02:58.699Z,21.33
2019-05-25T09:05:32.993Z,21.67
2019-05-25T09:08:01.660Z,22.25
2019-05-25T09:10:30.367Z,22.43
2019-05-25T09:12:59.029Z,22.64
2019-05-25T09:15:27.686Z,23.20
2019-05-25T09:17:56.508Z,23.02
2019-05-25T09:20:25.153Z,23.19
2019-05-25T09:22:53.818Z,22.96
2019-05-25T09:25:22.525Z,23.22
2019-05-25T09:27:51.180Z,23.64
2019-05-25T09:30:19.993Z,23.20
2019-05-25T09:32:51.412Z,23.50
2019-05-25T09:35:22.372Z,23.43
2019-05-25T09:37:52.479Z,23.34
2019-05-25T09:40:21.287Z,23.90
2019-05-25T09:42:54.866Z,23.80
2019-05-25T09:45:23.554Z,22.90
2019-05-25T09:47:52.298Z,22.61
2019-05-25T09:50:20.984Z,22.48
2019-05-25T09:52:49.662Z,22.50
2019-05-25T09:55:19.894Z,22.15
2019-05-25T09:57:48.457Z,22.17
2019-05-25T10:00:17.592Z,22.18
2019-05-25T10:02:46.824Z,22.10
2019-05-25T10:05:15.794Z,22.34
2019-05-25T10:07:44.460Z,22.82
2019-05-25T10:10:13.412Z,22.75
2019-05-25T10:12:42.050Z,23.32
2019-05-25T10:15:11.403Z,23.47
2019-05-25T10:17:40.055Z,23.43
2019-05-25T10:20:10.427Z,23.30
2019-05-25T10:22:39.116Z,22.98
2019-05-25T10:25:08.389Z,23.01
2019-05-25T10:27:37.010Z,23.19
2019-05-25T10:30:08.006Z,23.59
2019-05-25T10:32:41.768Z,23.82
2019-05-25T10:35:12.500Z,24.07
2019-05-25T10:37:41.182Z,23.89
2019-05-25T10:40:10.247Z,23.63
2019-05-25T10:42:40.526Z,24.05
2019-05-25T10:45:09.874Z,23.83
2019-05-25T10:47:38.741Z,23.53
2019-05-25T10:50:09.221Z,23.65
2019-05-25T10:52:37.892Z,23.43
2019-05-25T10:55:08.181Z,23.29
2019-05-25T10:57:38.501Z,23.30
2019-05-25T11:00:09.464Z,23.19
2019-05-25T11:02:38.119Z,22.58
2019-05-25T11:05:10.369Z,23.38
2019-05-25T11:07:39.112Z,23.67
2019-05-25T11:10:09.075Z,23.21
2019-05-25T11:12:37.798Z,22.16
2019-05-25T11:15:07.352Z,22.38
2019-05-25T11:17:36.582Z,22.61
2019-05-25T11:20:08.059Z,22.12
2019-05-25T11:22:38.186Z,22.83
2019-05-25T11:25:08.131Z,23.51
2019-05-25T11:27:36.855Z,23.75
2019-05-25T11:30:10.368Z,23.49
2019-05-25T11:32:39.126Z,23.74
2019-05-25T11:35:08.161Z,23.70
2019-05-25T11:37:36.880Z,24.05
2019-05-25T11:40:12.154Z,23.86
2019-05-25T11:42:40.753Z,24.11
2019-05-25T11:45:10.239Z,24.36
2019-05-25T11:47:38.905Z,23.68
2019-05-25T11:50:10.989Z,24.32
2019-05-25T11:52:40.145Z,24.21
2019-05-25T11:55:09.426Z,24.10
2019-05-25T11:57:38.075Z,24.30
2019-05-25T12:00:24.198Z,24.44
2019-05-25T12:02:43.031Z,24.35
2019-05-25T12:05:12.095Z,24.25
2019-05-25T12:07:44.474Z,24.02
2019-05-25T12:10:11.884Z,23.53
2019-05-25T12:12:40.669Z,24.48
2019-05-25T12:15:09.791Z,24.48
2019-05-25T12:17:38.430Z,23.95
2019-05-25T12:20:07.744Z,24.65
2019-05-25T12:22:36.506Z,24.74
2019-05-25T12:25:08.846Z,23.78
2019-05-25T12:27:37.448Z,24.35
2019-05-25T12:30:08.486Z,24.53
2019-05-25T12:32:37.152Z,24.39
2019-05-25T12:35:07.595Z,23.67
2019-05-25T12:37:36.314Z,24.00
2019-05-25T12:40:06.985Z,24.47
2019-05-25T12:42:35.665Z,24.38
2019-05-25T12:45:06.074Z,24.08
2019-05-25T12:47:34.800Z,24.11
2019-05-25T12:50:04.719Z,23.73
2019-05-25T12:52:33.272Z,24.28
2019-05-25T12:55:02.937Z,24.53
2019-05-25T12:57:32.694Z,24.37
2019-05-25T13:00:15.036Z,24.28
2019-05-25T13:02:31.653Z,24.24
2019-05-25T13:05:00.381Z,24.01
2019-05-25T13:07:29.097Z,24.18
2019-05-25T13:09:57.824Z,23.85
2019-05-25T13:12:32.791Z,23.88
2019-05-25T13:15:01.511Z,24.36
2019-05-25T13:17:31.865Z,23.93
2019-05-25T13:20:00.514Z,23.83
2019-05-25T13:22:29.222Z,24.35
2019-05-25T13:24:58.026Z,24.54
2019-05-25T13:27:26.769Z,25.10
2019-05-25T13:29:55.486Z,24.57
2019-05-25T13:32:24.272Z,24.24
2019-05-25T13:34:52.927Z,23.92
2019-05-25T13:37:21.640Z,23.84
2019-05-25T13:39:50.418Z,23.64
2019-05-25T13:42:19.162Z,23.85
2019-05-25T13:44:47.881Z,23.82
2019-05-25T13:47:16.707Z,23.82
2019-05-25T13:49:46.605Z,23.38
2019-05-25T13:52:17.022Z,23.43
2019-05-25T13:54:49.004Z,23.39
2019-05-25T13:57:17.670Z,23.29
2019-05-25T13:59:46.332Z,23.31
2019-05-25T14:02:15.023Z,23.42
2019-05-25T14:04:43.741Z,23.10
2019-05-25T14:07:12.601Z,22.66
2019-05-25T14:09:41.251Z,22.98
2019-05-25T14:12:09.906Z,23.28
2019-05-25T14:14:38.653Z,23.06
2019-05-25T14:17:07.448Z,22.77
2019-05-25T14:19:36.058Z,22.71
2019-05-25T14:24:32.385Z,22.02
2019-05-25T14:27:01.044Z,22.12
2019-05-25T14:29:29.724Z,21.81
2019-05-25T14:32:22.688Z,21.30
2019-05-25T14:34:51.411Z,21.38
2019-05-25T14:37:20.001Z,21.57
2019-05-25T14:39:48.744Z,22.02
2019-05-25T14:42:17.469Z,22.23
2019-05-25T14:44:46.131Z,22.05
2019-05-25T14:47:14.838Z,22.65
2019-05-25T14:49:45.026Z,22.37
2019-05-25T14:52:13.697Z,22.35
2019-05-25T14:54:42.314Z,21.87
2019-05-25T14:57:11.059Z,21.59
2019-05-25T14:59:40.086Z,21.65
2019-05-25T15:02:08.787Z,21.54
2019-05-25T15:04:37.507Z,21.59
2019-05-25T15:07:06.175Z,21.88
2019-05-25T15:09:35.067Z,21.68
2019-05-25T15:12:03.784Z,22.10
2019-05-25T15:14:32.444Z,22.17
2019-05-25T15:17:01.414Z,21.92
2019-05-25T15:19:30.079Z,21.82
2019-05-25T15:21:58.789Z,21.67
2019-05-25T15:24:27.644Z,22.15
2019-05-25T15:26:56.363Z,22.16
2019-05-25T15:29:25.082Z,22.16
2019-05-25T15:31:53.962Z,22.57
2019-05-25T15:34:31.361Z,22.78
2019-05-25T15:37:00.027Z,22.92
2019-05-25T15:39:28.759Z,22.55
2019-05-25T15:41:57.421Z,22.66
2019-05-25T15:44:28.906Z,22.58
2019-05-25T15:46:57.621Z,22.73
2019-05-25T15:49:33.262Z,22.71
2019-05-25T15:51:56.668Z,22.68
2019-05-25T15:54:25.441Z,22.71
2019-05-25T15:56:54.142Z,22.59
2019-05-25T15:59:23.805Z,22.60
2019-05-25T16:01:52.658Z,22.15
2019-05-25T16:04:21.366Z,22.13
2019-05-25T16:06:50.133Z,22.03
2019-05-25T16:09:18.760Z,22.13
2019-05-25T16:11:47.704Z,22.09
2019-05-25T16:14:16.388Z,21.76
2019-05-25T16:16:45.042Z,22.09
2019-05-25T16:19:13.915Z,22.27
2019-05-25T16:21:42.602Z,22.13
2019-05-25T16:24:11.249Z,22.13
2019-05-25T16:26:45.892Z,22.19
2019-05-25T16:29:10.329Z,22.12
2019-05-25T16:31:39.059Z,22.12
2019-05-25T16:34:07.717Z,22.23
2019-05-25T16:36:36.364Z,22.06
2019-05-25T16:39:07.179Z,21.76
2019-05-25T16:41:35.844Z,21.34
2019-05-25T16:44:04.546Z,21.35
2019-05-25T16:46:33.265Z,21.46
2019-05-25T16:49:01.924Z,21.46
2019-05-25T16:51:31.026Z,21.41
2019-05-25T16:53:59.674Z,21.56
2019-05-25T16:56:28.333Z,21.34
2019-05-25T16:58:57.018Z,21.31
2019-05-25T17:01:25.800Z,21.51
2019-05-25T17:03:54.461Z,21.29
2019-05-25T17:06:23.143Z,21.37
2019-05-25T17:08:55.890Z,21.24
2019-05-25T17:11:22.304Z,21.15
2019-05-25T17:13:50.998Z,21.01
2019-05-25T17:16:19.642Z,21.01
2019-05-25T17:18:48.158Z,20.90
2019-05-25T17:21:17.101Z,20.83
2019-05-25T17:23:45.816Z,20.87
2019-05-25T17:26:14.629Z,20.72
2019-05-25T17:28:43.327Z,20.68
2019-05-25T17:31:12.137Z,20.62
2019-05-25T17:33:45.818Z,20.64
2019-05-25T17:36:13.164Z,20.85
2019-05-25T17:38:41.707Z,20.63
2019-05-25T17:41:10.368Z,20.58
2019-05-25T17:43:39.124Z,20.52
2019-05-25T17:46:08.774Z,20.05
2019-05-25T17:48:37.437Z,19.80
2019-05-25T17:51:06.202Z,19.66
2019-05-25T17:53:34.940Z,19.63
2019-05-25T17:56:03.629Z,19.58
2019-05-25T17:58:33.977Z,19.44
2019-05-25T18:01:02.815Z,19.22
2019-05-25T18:03:31.392Z,19.02
2019-05-25T18:06:00.083Z,19.19
2019-05-25T18:08:32.656Z,19.27
2019-05-25T18:11:01.374Z,19.21
2019-05-25T18:13:29.970Z,19.15
2019-05-25T18:15:58.632Z,19.13
2019-05-25T18:18:27.342Z,19.00
2019-05-25T18:20:56.063Z,18.95
2019-05-25T18:23:24.720Z,18.81
2019-05-25T18:25:53.338Z,18.67
2019-05-25T18:28:22.058Z,18.49
2019-05-25T18:30:50.707Z,18.23
2019-05-25T18:33:19.439Z,18.15
2019-05-25T18:35:48.186Z,17.89
2019-05-25T18:38:16.884Z,17.84
2019-05-25T18:40:45.665Z,17.75
2019-05-25T18:43:14.384Z,17.78
2019-05-25T18:45:43.149Z,17.63
2019-05-25T18:48:13.270Z,17.65
2019-05-25T18:50:41.974Z,17.61
2019-05-25T18:53:10.699Z,17.62
2019-05-25T18:55:39.465Z,17.62
2019-05-25T18:58:08.140Z,17.45
2019-05-25T19:00:36.799Z,17.51
2019-05-25T19:03:05.653Z,17.31
2019-05-25T19:05:34.355Z,17.35
2019-05-25T19:08:03.022Z,17.53
2019-05-25T19:10:31.762Z,17.55
2019-05-25T19:13:00.499Z,17.66
2019-05-25T19:15:29.254Z,17.60
2019-05-25T19:17:57.796Z,17.55
2019-05-25T19:20:26.450Z,17.61
2019-05-25T19:22:55.251Z,17.41
2019-05-25T19:25:23.966Z,17.34
2019-05-25T19:27:52.621Z,16.90
2019-05-25T19:30:21.412Z,16.83
2019-05-25T19:32:50.128Z,16.72
2019-05-25T19:35:18.881Z,16.61
2019-05-25T19:37:47.574Z,16.64
2019-05-25T19:40:17.894Z,16.57
2019-05-25T19:42:49.829Z,16.56
2019-05-25T19:45:17.339Z,16.50
2019-05-25T19:47:46.037Z,16.43
2019-05-25T19:50:15.366Z,16.45
2019-05-25T19:52:44.121Z,16.45
2019-05-25T19:55:13.041Z,16.38
2019-05-25T19:57:45.083Z,16.54
2019-05-25T20:00:12.549Z,16.58
2019-05-25T20:02:41.343Z,16.54
2019-05-25T20:05:16.988Z,16.63
2019-05-25T20:07:40.780Z,16.46
2019-05-25T20:10:10.859Z,16.68
2019-05-25T20:12:39.422Z,16.43
2019-05-25T20:15:09.505Z,16.26
2019-05-25T20:17:38.212Z,16.24
2019-05-25T20:20:08.031Z,16.41
2019-05-25T20:22:36.718Z,16.20
2019-05-25T20:25:08.642Z,16.10
2019-05-25T20:27:37.256Z,15.84
2019-05-25T20:30:07.783Z,15.72
2019-05-25T20:32:36.592Z,15.95
2019-05-25T20:35:08.365Z,15.86
2019-05-25T20:37:37.065Z,16.04
2019-05-25T20:40:07.819Z,16.04
2019-05-25T20:42:36.881Z,16.20
2019-05-25T20:45:07.756Z,16.20
2019-05-25T20:47:36.404Z,15.82
2019-05-25T20:50:07.533Z,15.91
2019-05-25T20:52:36.343Z,15.92
2019-05-25T20:55:09.146Z,15.92
2019-05-25T20:57:37.752Z,15.81
2019-05-25T21:00:07.609Z,15.87
2019-05-25T21:02:36.314Z,15.74
2019-05-25T21:05:07.168Z,15.85
2019-05-25T21:07:35.793Z,15.55
2019-05-25T21:10:08.628Z,15.34
2019-05-25T21:12:39.682Z,15.24
2019-05-25T21:15:08.984Z,15.18
2019-05-25T21:17:37.704Z,15.16
2019-05-25T21:20:07.751Z,15.18
2019-05-25T21:22:36.469Z,15.14
2019-05-25T21:25:08.494Z,15.33
2019-05-25T21:27:37.216Z,15.25
2019-05-25T21:30:06.604Z,15.20
2019-05-25T21:32:35.246Z,15.19
2019-05-25T21:35:04.610Z,15.34
2019-05-25T21:37:33.389Z,15.10
2019-05-25T21:40:02.743Z,15.08
2019-05-25T21:42:31.539Z,15.17
2019-05-25T21:45:00.159Z,15.11
2019-05-25T21:47:28.908Z,15.14
2019-05-25T21:49:57.554Z,15.09
2019-05-25T21:52:26.243Z,15.17
2019-05-25T21:54:54.924Z,14.82
2019-05-25T21:57:23.648Z,14.94
2019-05-25T21:59:52.426Z,14.77
2019-05-25T22:02:21.271Z,15.04
2019-05-25T22:04:49.918Z,14.80
2019-05-25T22:07:18.670Z,15.22
2019-05-25T22:09:47.411Z,14.83
2019-05-25T22:12:16.130Z,14.71
2019-05-25T22:14:44.823Z,14.72
2019-05-25T22:17:13.497Z,14.45
2019-05-25T22:19:42.217Z,14.91
2019-05-25T22:22:11.158Z,14.63
2019-05-25T22:24:39.881Z,14.83
2019-05-25T22:27:08.551Z,14.61
2019-05-25T22:29:37.266Z,14.53
2019-05-25T22:32:06.181Z,14.39
2019-05-25T22:34:34.829Z,14.43
2019-05-25T22:37:03.645Z,14.36
2019-05-25T22:39:32.514Z,14.46
2019-05-25T22:42:01.247Z,14.68
2019-05-25T22:44:30.146Z,14.09
2019-05-25T22:46:58.877Z,14.08
2019-05-25T22:49:27.545Z,14.14
2019-05-25T22:51:56.305Z,14.17
2019-05-25T22:54:25.086Z,14.16
2019-05-25T22:56:53.735Z,14.15
2019-05-25T22:59:22.399Z,14.06
2019-05-25T23:01:51.182Z,14.20
2019-05-25T23:04:19.902Z,14.00
2019-05-25T23:06:57.896Z,14.00
2019-05-25T23:09:19.156Z,14.09
2019-05-25T23:11:47.880Z,14.27
2019-05-25T23:14:16.525Z,14.25
2019-05-25T23:16:45.229Z,14.26
2019-05-25T23:19:13.956Z,13.96
2019-05-25T23:21:42.542Z,13.82
2019-05-25T23:24:11.234Z,14.02
2019-05-25T23:26:40.167Z,13.85
2019-05-25T23:29:08.869Z,13.83
2019-05-25T23:31:37.569Z,13.95
2019-05-25T23:34:06.231Z,14.00
2019-05-25T23:36:34.999Z,14.03
2019-05-25T23:39:04.732Z,13.92
2019-05-25T23:41:33.368Z,13.88
2019-05-25T23:44:02.024Z,14.12
2019-05-25T23:46:30.790Z,13.87
2019-05-25T23:48:59.459Z,13.73
2019-05-25T23:51:28.184Z,14.01
2019-05-25T23:53:56.878Z,13.82
2019-05-25T23:56:25.525Z,13.74
2019-05-25T23:58:54.164Z,13.70
